Time;durP1;ratioP1;P1;durP2;ratioP2;P2;SDS_P1;SDS_P2;PMS_P1;PMS_P2;Temp;Humidity;BMP_temperature;BMP_pressure;BME280_temperature;BME280_humidity;BME280_pressure;Samples;Min_cycle;Max_cycle;Signal;HPM_P1;HPM_P2
2021/01/21 00:00:29;;;;;;;352.33;98.53;;;;;;;-1.53;89.41;97741.94;5097103;28;20051;-63
2021/01/21 00:02:54;;;;;;;349.70;98.87;;;;;;;-1.52;89.32;97728.53;5076464;28;20101;-64
2021/01/21 00:05:20;;;;;;;346.27;95.23;;;;;;;-1.56;89.08;97725.13;5097338;28;20467;-64
2021/01/21 00:07:45;;;;;;;350.03;95.57;;;;;;;-1.63;88.89;97720.00;5095953;28;20028;-63
2021/01/21 00:10:11;;;;;;;340.60;91.40;;;;;;;-1.65;89.39;97726.66;5096319;28;20408;-64
2021/01/21 00:12:36;;;;;;;347.17;97.13;;;;;;;-1.61;89.32;97718.38;5095800;28;20043;-64
2021/01/21 00:15:03;;;;;;;340.63;93.03;;;;;;;-1.52;89.29;97709.28;5096259;28;20115;-63
2021/01/21 00:17:28;;;;;;;349.85;98.05;;;;;;;-1.53;89.33;97717.63;5096605;28;20455;-63
2021/01/21 00:19:53;;;;;;;341.33;93.80;;;;;;;-1.40;89.07;97719.50;5095008;28;20110;-64
2021/01/21 00:22:19;;;;;;;349.20;94.60;;;;;;;-1.48;88.33;97713.50;5096114;28;20040;-63
2021/01/21 00:24:44;;;;;;;340.40;94.07;;;;;;;-1.55;88.48;97704.22;5087469;28;20032;-63
2021/01/21 00:27:09;;;;;;;358.37;100.13;;;;;;;-1.56;88.49;97705.03;5075911;28;20044;-63
2021/01/21 00:29:35;;;;;;;348.33;97.03;;;;;;;-1.42;88.10;97697.69;5074957;28;20193;-63
2021/01/21 00:32:00;;;;;;;350.17;97.47;;;;;;;-1.55;87.83;97701.72;5058792;28;20040;-64
2021/01/21 00:34:26;;;;;;;343.50;93.97;;;;;;;-1.47;87.39;97702.66;5074803;28;20028;-64
2021/01/21 00:36:51;;;;;;;342.17;94.17;;;;;;;-1.55;87.32;97698.34;5076507;28;20028;-63
2021/01/21 00:39:17;;;;;;;350.03;102.27;;;;;;;-1.59;87.72;97694.09;5075186;28;20376;-64
2021/01/21 00:41:42;;;;;;;338.67;93.43;;;;;;;-1.66;88.17;97692.34;5077080;28;20116;-63
2021/01/21 00:44:08;;;;;;;346.33;96.10;;;;;;;-1.73;88.21;97693.91;5095803;28;20064;-63
2021/01/21 00:46:33;;;;;;;343.10;93.93;;;;;;;-1.78;88.52;97700.53;5096843;28;20086;-63
2021/01/21 00:48:58;;;;;;;347.83;95.23;;;;;;;-1.75;88.54;97699.75;5096620;28;20107;-63
2021/01/21 00:51:24;;;;;;;341.93;97.97;;;;;;;-1.77;88.96;97699.72;5095486;28;20036;-63
2021/01/21 00:53:49;;;;;;;337.83;94.13;;;;;;;-1.67;89.18;97699.03;5097314;28;20411;-63
2021/01/21 00:56:14;;;;;;;346.53;97.00;;;;;;;-1.61;89.27;97699.09;5094434;28;20044;-63
2021/01/21 00:58:40;;;;;;;340.50;94.10;;;;;;;-1.53;89.23;97696.72;5076631;28;20449;-63
2021/01/21 01:01:05;;;;;;;344.30;94.23;;;;;;;-1.47;89.07;97686.72;5075069;28;20078;-63
2021/01/21 01:03:31;;;;;;;342.10;93.10;;;;;;;-1.34;88.47;97685.22;5083181;28;20040;-63
2021/01/21 01:05:56;;;;;;;345.27;95.23;;;;;;;-1.29;87.95;97669.38;5095611;28;20040;-64
2021/01/21 01:08:22;;;;;;;338.13;92.47;;;;;;;-1.26;87.69;97671.06;5088319;28;20064;-64
2021/01/21 01:10:47;;;;;;;344.50;95.33;;;;;;;-1.17;87.27;97678.72;5075144;28;20037;-63
2021/01/21 01:13:13;;;;;;;346.27;95.63;;;;;;;-1.19;87.10;97681.19;5081786;28;20403;-64
2021/01/21 01:15:38;;;;;;;345.93;95.87;;;;;;;-1.16;86.39;97676.22;5075314;28;20647;-64
2021/01/21 01:18:03;;;;;;;350.00;101.27;;;;;;;-1.20;86.33;97676.16;5075884;28;20115;-64
2021/01/21 01:20:29;;;;;;;343.23;95.17;;;;;;;-1.16;86.73;97670.34;5095663;28;20036;-63
2021/01/21 01:22:55;;;;;;;351.60;98.77;;;;;;;-1.17;86.81;97666.97;5093728;28;20032;-63
2021/01/21 01:25:22;;;;;;;344.13;96.13;;;;;;;-1.26;86.98;97664.34;5075637;28;20047;-63
2021/01/21 01:27:49;;;;;;;343.02;94.57;;;;;;;-1.37;86.73;97668.44;5075724;28;20036;-63
2021/01/21 01:30:16;;;;;;;340.77;92.00;;;;;;;-1.39;86.97;97675.94;5083899;28;20048;-63
2021/01/21 01:32:45;;;;;;;345.92;95.15;;;;;;;-1.43;87.31;97668.34;5084930;28;20055;-63
2021/01/21 01:35:11;;;;;;;339.83;91.65;;;;;;;-1.51;87.44;97659.88;5083890;28;20046;-63
2021/01/21 01:37:39;;;;;;;344.93;94.13;;;;;;;-1.57;87.20;97659.81;5082458;28;20024;-63
2021/01/21 01:40:09;;;;;;;340.52;92.10;;;;;;;-1.63;87.23;97650.50;5089472;28;20458;-64
2021/01/21 01:42:35;;;;;;;343.60;94.45;;;;;;;-1.70;87.58;97657.97;5092794;28;20035;-63
2021/01/21 01:45:00;;;;;;;343.23;93.53;;;;;;;-1.77;87.43;97671.22;5084711;28;20131;-63
2021/01/21 01:47:26;;;;;;;341.17;92.40;;;;;;;-1.82;87.75;97665.34;5076999;28;20115;-63
2021/01/21 01:49:57;;;;;;;342.00;93.85;;;;;;;-1.83;87.65;97668.66;5078462;28;20460;-63
2021/01/21 01:52:26;;;;;;;337.45;91.70;;;;;;;-1.89;87.92;97675.28;5073285;28;20123;-64
2021/01/21 01:54:51;;;;;;;350.08;97.53;;;;;;;-1.95;88.03;97672.66;5070218;28;20134;-63
2021/01/21 01:57:18;;;;;;;344.00;93.97;;;;;;;-1.93;88.62;97672.69;5073283;28;20125;-63
2021/01/21 01:59:43;;;;;;;341.40;91.50;;;;;;;-1.99;88.65;97680.97;5073117;28;20476;-63
2021/01/21 02:02:09;;;;;;;337.33;91.33;;;;;;;-2.04;88.29;97669.19;5090404;28;20032;-63
2021/01/21 02:04:34;;;;;;;346.33;93.33;;;;;;;-2.04;88.60;97667.53;5093300;28;20822;-63
2021/01/21 02:07:00;;;;;;;342.30;92.70;;;;;;;-1.97;88.83;97670.97;5093843;28;20024;-63
2021/01/21 02:09:27;;;;;;;338.13;91.53;;;;;;;-1.94;88.42;97669.34;5093941;28;20341;-64
2021/01/21 02:12:21;;;;;;;342.85;94.43;;;;;;;-1.97;88.17;97671.81;5093768;28;20288;-63
2021/01/21 02:15:05;;;;;;;339.88;92.07;;;;;;;-1.89;88.23;97680.31;5094582;28;20123;-63
2021/01/21 02:18:32;;;;;;;343.70;96.43;;;;;;;-1.96;87.94;97675.19;5092646;28;20246;-63
2021/01/21 02:21:19;;;;;;;334.40;91.20;;;;;;;-1.95;88.25;97694.41;4991372;28;20057;-63
2021/01/21 02:24:16;;;;;;;336.88;90.10;;;;;;;-1.99;88.06;97686.00;5000694;28;20026;-63
2021/01/21 02:26:49;;;;;;;332.88;89.93;;;;;;;-1.93;88.28;97691.13;5011783;28;20441;-64
2021/01/21 02:29:30;;;;;;;335.20;90.85;;;;;;;-2.00;88.17;97678.47;4999594;28;20134;-62
2021/01/21 02:32:07;;;;;;;337.25;92.68;;;;;;;-2.03;88.04;97663.34;4976812;28;20121;-63
2021/01/21 02:34:40;;;;;;;339.23;91.35;;;;;;;-1.99;87.98;97655.03;5005908;28;20046;-63
2021/01/21 02:37:13;;;;;;;340.80;92.70;;;;;;;-2.06;87.76;97663.28;5012075;28;20084;-63
2021/01/21 02:39:39;;;;;;;336.50;91.07;;;;;;;-2.15;87.88;97660.66;5011604;28;20038;-63
2021/01/21 02:42:05;;;;;;;335.30;91.40;;;;;;;-2.23;87.36;97659.69;5011616;28;20054;-63
2021/01/21 02:44:30;;;;;;;341.47;90.70;;;;;;;-2.19;88.05;97657.25;5011349;28;20037;-63
2021/01/21 02:46:56;;;;;;;336.03;90.97;;;;;;;-2.21;88.29;97668.09;5012080;28;20029;-63
2021/01/21 02:49:22;;;;;;;338.92;91.93;;;;;;;-2.22;87.77;97666.41;5001237;28;20065;-63
2021/01/21 02:51:51;;;;;;;337.17;91.88;;;;;;;-2.28;87.90;97657.09;4992338;28;20440;-63
2021/01/21 02:54:25;;;;;;;339.35;90.90;;;;;;;-2.16;88.08;97658.94;5025114;28;20468;-63
2021/01/21 02:57:16;;;;;;;335.98;90.70;;;;;;;-2.15;88.00;97658.97;5073252;28;20142;-63
2021/01/21 02:59:42;;;;;;;330.98;88.57;;;;;;;-2.12;88.22;97663.22;5022710;28;20036;-63
2021/01/21 03:02:09;;;;;;;330.67;88.53;;;;;;;-2.08;87.96;97653.22;5073699;28;20035;-63
2021/01/21 03:04:39;;;;;;;336.27;90.93;;;;;;;-2.07;87.68;97646.53;5075501;28;20464;-63
2021/01/21 03:07:07;;;;;;;337.42;90.35;;;;;;;-1.92;87.63;97657.66;5093395;28;20410;-63
2021/01/21 03:09:34;;;;;;;342.98;91.60;;;;;;;-1.92;87.12;97672.72;5092693;28;20040;-63
2021/01/21 03:12:16;;;;;;;338.02;91.47;;;;;;;-1.97;87.05;97684.38;5092485;28;20510;-63
2021/01/21 03:14:42;;;;;;;336.90;89.80;;;;;;;-2.07;87.26;97682.53;5093584;28;20040;-63
2021/01/21 03:17:08;;;;;;;338.70;91.57;;;;;;;-1.92;87.61;97672.72;5074292;28;20047;-63
2021/01/21 03:19:33;;;;;;;338.97;93.37;;;;;;;-1.69;86.99;97673.03;5093145;28;20067;-63
2021/01/21 03:21:58;;;;;;;337.13;91.07;;;;;;;-1.63;86.70;97670.59;5084007;28;20036;-63
2021/01/21 03:24:24;;;;;;;339.33;94.17;;;;;;;-1.56;86.40;97674.03;5073236;28;20043;-63
2021/01/21 03:26:50;;;;;;;335.55;89.85;;;;;;;-1.49;85.58;97681.69;5079142;28;20032;-63
2021/01/21 03:29:15;;;;;;;336.43;90.10;;;;;;;-1.49;84.99;97685.88;5082126;28;20098;-63
2021/01/21 03:31:40;;;;;;;339.47;91.77;;;;;;;-1.57;85.01;97684.94;5076671;28;20107;-63
2021/01/21 03:34:06;;;;;;;341.47;93.53;;;;;;;-1.61;84.98;97678.19;5093530;28;20035;-63
2021/01/21 03:36:31;;;;;;;345.93;97.93;;;;;;;-1.74;85.13;97671.31;5089834;28;20367;-63
2021/01/21 03:38:56;;;;;;;341.80;91.90;;;;;;;-1.66;85.14;97684.81;5077283;28;20036;-63
2021/01/21 03:41:22;;;;;;;346.37;95.00;;;;;;;-1.74;85.06;97673.81;5075605;28;20119;-62
2021/01/21 03:43:47;;;;;;;333.43;88.00;;;;;;;-1.75;85.16;97679.66;5079775;28;20101;-63
2021/01/21 03:46:12;;;;;;;337.30;91.63;;;;;;;-1.64;84.83;97680.63;5096360;28;20028;-62
2021/01/21 03:48:38;;;;;;;335.17;92.13;;;;;;;-1.51;84.62;97674.94;5077196;28;20103;-63
2021/01/21 03:51:03;;;;;;;335.07;91.33;;;;;;;-1.38;83.60;97677.63;5075822;28;20123;-63
2021/01/21 03:53:29;;;;;;;336.30;90.30;;;;;;;-1.42;83.23;97665.84;5074297;28;20027;-63
2021/01/21 03:55:54;;;;;;;340.03;92.33;;;;;;;-1.55;83.50;97664.00;5096413;28;20036;-63
2021/01/21 03:58:19;;;;;;;332.77;90.10;;;;;;;-1.67;83.50;97668.88;5096249;28;20114;-63
2021/01/21 04:00:45;;;;;;;334.23;91.33;;;;;;;-1.81;83.91;97669.50;5096866;28;20032;-63
2021/01/21 04:03:10;;;;;;;335.00;89.00;;;;;;;-1.90;84.33;97681.13;5095744;28;20111;-63
2021/01/21 04:05:35;;;;;;;331.87;89.93;;;;;;;-1.98;84.52;97687.69;5097116;28;20032;-63
2021/01/21 04:08:01;;;;;;;338.57;91.17;;;;;;;-2.05;84.68;97688.44;5095782;28;20372;-63
2021/01/21 04:10:26;;;;;;;336.03;91.00;;;;;;;-2.11;85.05;97695.88;5096552;28;20085;-63
2021/01/21 04:12:51;;;;;;;333.90;89.70;;;;;;;-2.17;85.07;97679.88;5070537;28;20032;-63
2021/01/21 04:15:17;;;;;;;342.50;92.90;;;;;;;-2.20;85.37;97679.81;5076081;28;20071;-63
2021/01/21 04:17:42;;;;;;;341.47;94.53;;;;;;;-2.25;85.61;97683.94;5075112;28;20035;-63
2021/01/21 04:20:08;;;;;;;335.93;90.77;;;;;;;-2.30;85.60;97696.41;5076191;28;20040;-63
2021/01/21 04:22:33;;;;;;;332.47;90.30;;;;;;;-2.38;85.82;97703.78;5077972;28;20032;-63
2021/01/21 04:24:59;;;;;;;338.33;94.00;;;;;;;-2.41;85.51;97702.91;5096663;28;20046;-63
2021/01/21 04:27:24;;;;;;;341.67;98.90;;;;;;;-2.35;86.70;97703.00;5094817;28;20418;-63
2021/01/21 04:29:49;;;;;;;333.27;92.07;;;;;;;-2.36;86.34;97699.66;5096686;28;20028;-64
2021/01/21 04:32:15;;;;;;;337.10;92.83;;;;;;;-2.28;86.32;97707.31;5095505;28;20055;-63
2021/01/21 04:34:40;;;;;;;330.03;90.00;;;;;;;-2.21;86.25;97708.25;5095842;28;20059;-63
2021/01/21 04:37:05;;;;;;;336.60;92.57;;;;;;;-2.16;86.49;97712.50;5095346;28;20040;-63
2021/01/21 04:39:31;;;;;;;334.43;89.83;;;;;;;-2.19;86.18;97714.13;5095573;28;20067;-64
2021/01/21 04:41:56;;;;;;;329.10;89.27;;;;;;;-2.16;85.56;97706.66;5095475;28;20031;-63
2021/01/21 04:44:22;;;;;;;329.27;87.50;;;;;;;-2.22;85.57;97702.41;5080630;28;20033;-63
2021/01/21 04:46:48;;;;;;;337.37;91.07;;;;;;;-2.21;85.82;97701.59;5075506;28;20150;-63
2021/01/21 04:49:15;;;;;;;332.25;91.63;;;;;;;-2.22;85.79;97709.06;5073100;28;20128;-63
2021/01/21 04:51:41;;;;;;;330.55;86.93;;;;;;;-2.26;85.63;97705.69;5075747;28;20036;-63
2021/01/21 04:54:07;;;;;;;327.40;87.80;;;;;;;-2.28;85.54;97717.34;5074702;28;20040;-63
2021/01/21 04:56:38;;;;;;;331.00;88.22;;;;;;;-2.24;86.10;97726.59;5076095;28;20097;-63
2021/01/21 04:59:10;;;;;;;332.10;88.35;;;;;;;-2.10;85.76;97725.19;5084550;28;20133;-63
2021/01/21 05:01:36;;;;;;;332.80;89.65;;;;;;;-2.14;85.30;97727.63;5095808;28;20042;-63
2021/01/21 05:04:02;;;;;;;330.73;88.13;;;;;;;-2.21;85.13;97741.75;5093592;28;20024;-63
2021/01/21 05:06:28;;;;;;;332.75;90.68;;;;;;;-2.20;85.33;97732.53;5095600;28;20413;-63
2021/01/21 05:08:55;;;;;;;337.38;95.93;;;;;;;-2.22;85.26;97730.00;5093926;28;20108;-63
2021/01/21 05:11:20;;;;;;;337.60;92.45;;;;;;;-2.24;85.17;97729.13;5095864;28;20043;-63
2021/01/21 05:13:45;;;;;;;333.33;91.57;;;;;;;-2.32;85.23;97730.66;5094162;28;20032;-63
2021/01/21 05:16:11;;;;;;;329.87;89.83;;;;;;;-2.34;85.35;97725.63;5096196;28;20062;-63
2021/01/21 05:18:36;;;;;;;330.73;90.03;;;;;;;-2.37;84.69;97722.19;5094503;28;20032;-63
2021/01/21 05:21:04;;;;;;;326.93;86.43;;;;;;;-2.41;84.70;97721.31;5059159;28;20043;-63
2021/01/21 05:23:30;;;;;;;335.42;90.45;;;;;;;-2.49;85.28;97716.97;5074678;28;20112;-63
2021/01/21 05:25:55;;;;;;;335.17;90.00;;;;;;;-2.54;85.74;97724.44;5090866;28;20107;-63
2021/01/21 05:28:20;;;;;;;335.80;91.80;;;;;;;-2.45;85.61;97738.78;5094726;28;20055;-63
2021/01/21 05:30:49;;;;;;;328.50;88.90;;;;;;;-2.25;85.66;97732.47;5080167;28;20032;-63
2021/01/21 05:33:15;;;;;;;327.05;89.50;;;;;;;-2.19;85.63;97734.22;5074665;28;20378;-64
2021/01/21 05:35:42;;;;;;;327.73;87.23;;;;;;;-2.24;84.93;97728.28;5074035;28;20037;-64
2021/01/21 05:38:08;;;;;;;331.75;89.75;;;;;;;-2.32;84.80;97721.47;5074803;28;20036;-64
2021/01/21 05:40:35;;;;;;;346.55;92.90;;;;;;;-2.35;84.82;97725.59;5073687;28;20101;-64
2021/01/21 05:43:01;;;;;;;337.35;90.50;;;;;;;-2.36;85.62;97733.94;5084493;28;20107;-64
2021/01/21 05:45:27;;;;;;;336.85;92.00;;;;;;;-2.31;85.12;97724.84;5094176;28;20111;-64
2021/01/21 05:48:02;;;;;;;335.73;96.63;;;;;;;-2.26;84.77;97719.88;5093316;28;20470;-64
2021/01/21 05:50:28;;;;;;;;;;;;;;;-2.23;84.63;97714.91;5095893;28;20035;-64
2021/01/21 05:52:56;;;;;;;330.35;93.70;;;;;;;-2.20;83.93;97730.84;5092293;28;19926;-64
2021/01/21 05:55:23;;;;;;;323.67;89.25;;;;;;;-2.26;84.04;97730.78;5074577;28;20057;-64
2021/01/21 05:57:49;;;;;;;334.95;92.22;;;;;;;-2.31;83.91;97730.69;5073488;28;20115;-64
2021/01/21 06:00:17;;;;;;;338.08;95.80;;;;;;;-2.30;84.33;97729.03;5072888;28;20037;-62
2021/01/21 06:02:44;;;;;;;327.67;91.18;;;;;;;-2.30;84.61;97736.56;5074371;28;20028;-62
2021/01/21 06:05:13;;;;;;;329.13;91.40;;;;;;;-2.23;83.98;97733.31;5073354;28;20040;-63
2021/01/21 06:07:39;;;;;;;325.23;87.65;;;;;;;-2.25;83.53;97737.50;5094463;28;20036;-63
2021/01/21 06:10:05;;;;;;;336.47;90.90;;;;;;;-2.28;83.61;97732.41;5093713;28;20410;-62
2021/01/21 06:12:32;;;;;;;331.50;90.20;;;;;;;-2.32;83.68;97731.50;5081911;28;20036;-64
2021/01/21 06:15:01;;;;;;;333.52;91.20;;;;;;;-2.38;84.14;97730.56;5093665;28;20471;-64
2021/01/21 06:17:30;;;;;;;331.85;91.25;;;;;;;-2.50;84.53;97735.34;5094152;28;20092;-64
2021/01/21 06:19:55;;;;;;;335.70;92.25;;;;;;;-2.55;84.86;97744.50;5093447;28;20078;-64
2021/01/21 06:22:33;;;;;;;335.10;90.93;;;;;;;-2.55;84.74;97744.50;5078596;28;20056;-64
2021/01/21 06:25:03;;;;;;;334.15;93.93;;;;;;;-2.55;84.90;97747.84;5073267;28;20024;-64
2021/01/21 06:27:29;;;;;;;326.00;88.88;;;;;;;-2.61;85.16;97746.88;5088569;28;20058;-64
2021/01/21 06:29:56;;;;;;;335.35;89.47;;;;;;;-2.62;85.05;97742.66;5093697;28;20035;-63
2021/01/21 06:32:29;;;;;;;327.27;87.53;;;;;;;-2.67;84.87;97729.22;5093251;28;20304;-63
2021/01/21 06:34:59;;;;;;;330.02;89.63;;;;;;;-2.74;85.22;97735.78;5093592;28;20108;-63
2021/01/21 06:37:28;;;;;;;343.67;99.50;;;;;;;-2.62;85.78;97736.00;5092635;28;20032;-63
2021/01/21 06:40:03;;;;;;;350.00;102.82;;;;;;;-2.56;85.25;97735.25;5093321;28;20028;-63
2021/01/21 06:42:35;;;;;;;335.98;92.60;;;;;;;-2.60;84.84;97741.06;5092832;28;20118;-63
2021/01/21 06:45:02;;;;;;;334.48;91.88;;;;;;;-2.60;85.40;97751.09;5094018;28;20040;-63
2021/01/21 06:47:28;;;;;;;329.85;89.72;;;;;;;-2.56;85.30;97755.34;5081500;28;20115;-63
2021/01/21 06:50:03;;;;;;;330.92;92.30;;;;;;;-2.45;84.40;97756.38;5073540;28;20368;-63
2021/01/21 06:52:38;;;;;;;246.93;71.63;;;;;;;-2.45;84.39;97754.69;5073105;28;20032;-64
2021/01/21 06:55:08;;;;;;;335.40;93.75;;;;;;;-2.37;83.97;97748.16;5073194;28;20109;-63
2021/01/21 06:57:33;;;;;;;331.92;92.60;;;;;;;-2.41;83.72;97743.91;5083623;28;20221;-63
2021/01/21 06:59:59;;;;;;;329.93;92.00;;;;;;;-2.44;84.04;97735.47;5094040;28;20119;-63
2021/01/21 07:02:45;;;;;;;339.63;93.75;;;;;;;-2.35;84.75;97741.50;5083983;28;20097;-63
2021/01/21 07:05:15;;;;;;;339.60;94.03;;;;;;;-2.31;84.06;97734.88;5062831;28;20123;-62
2021/01/21 07:07:55;;;;;;;328.17;90.30;;;;;;;-2.31;84.18;97743.25;5080239;28;20033;-63
2021/01/21 07:10:37;;;;;;;331.02;92.90;;;;;;;-2.23;84.03;97748.38;5085007;28;20040;-63
2021/01/21 07:13:08;;;;;;;323.00;88.43;;;;;;;-2.19;84.03;97754.31;5094407;28;20360;-63
2021/01/21 07:15:35;;;;;;;329.13;96.78;;;;;;;-2.16;84.17;97754.34;5094165;28;20043;-62
2021/01/21 07:18:05;;;;;;;329.10;91.18;;;;;;;-2.10;84.29;97750.28;5084623;28;20041;-63
2021/01/21 07:20:35;;;;;;;337.40;98.30;;;;;;;-2.03;84.42;97749.56;5077468;28;20408;-64
2021/01/21 07:23:05;;;;;;;331.42;92.38;;;;;;;-1.93;84.50;97750.56;5093834;28;20048;-65
2021/01/21 07:25:31;;;;;;;336.05;95.22;;;;;;;-1.91;83.73;97754.75;5095361;28;20135;-66
2021/01/21 07:27:58;;;;;;;330.20;92.23;;;;;;;-1.88;84.02;97759.84;5076643;28;20524;-69
2021/01/21 07:30:27;;;;;;;334.33;94.53;;;;;;;-1.82;84.14;97760.78;5075867;28;20036;-69
2021/01/21 07:33:23;;;;;;;331.75;92.95;;;;;;;-1.66;84.10;97768.56;5074510;28;20044;-69
2021/01/21 07:35:52;;;;;;;331.48;92.40;;;;;;;-1.57;83.45;97777.91;5075056;28;20032;-70
2021/01/21 07:38:41;;;;;;;329.20;89.25;;;;;;;-1.49;83.33;97774.69;5076426;28;20419;-70
2021/01/21 07:41:06;;;;;;;337.90;93.53;;;;;;;-1.35;83.15;97761.44;5069152;28;20045;-70
2021/01/21 07:43:54;;;;;;;342.43;94.40;;;;;;;-1.22;82.94;97765.81;5096879;28;20111;-70
2021/01/21 07:46:26;;;;;;;341.23;95.95;;;;;;;-1.05;83.12;97752.63;5096281;28;20540;-70
2021/01/21 07:49:28;;;;;;;339.13;95.35;;;;;;;-0.86;83.04;97753.69;5077771;28;20098;-70
2021/01/21 07:52:06;;;;;;;347.35;99.68;;;;;;;-0.77;82.81;97768.06;5076304;28;20032;-71
2021/01/21 07:54:44;;;;;;;339.60;94.13;;;;;;;-0.61;82.54;97762.34;5097598;28;20064;-71
2021/01/21 07:57:10;;;;;;;350.95;98.63;;;;;;;-0.65;82.61;97758.97;5076628;28;20368;-71
2021/01/21 07:59:58;;;;;;;352.80;103.70;;;;;;;-0.55;82.30;97757.38;5075742;28;20112;-66
2021/01/21 08:02:23;;;;;;;346.83;98.82;;;;;;;-0.43;82.62;97760.03;5057696;28;20029;-65
2021/01/21 08:04:59;;;;;;;353.63;101.67;;;;;;;-0.12;82.31;97753.59;5075652;28;20025;-63
2021/01/21 08:07:24;;;;;;;;;;;;;;;0.02;81.88;97743.63;5067619;28;20025;-62
2021/01/21 08:10:06;;;;;;;349.97;98.37;;;;;;;0.04;81.38;97747.03;5038785;28;19908;-62
2021/01/21 08:12:32;;;;;;;354.52;102.88;;;;;;;0.04;80.72;97749.56;5065881;28;20484;-63
2021/01/21 08:14:58;;;;;;;347.33;97.97;;;;;;;0.02;79.91;97751.19;5075388;28;20104;-62
2021/01/21 08:17:23;;;;;;;345.63;96.95;;;;;;;0.12;79.42;97753.81;5073582;28;20041;-63
2021/01/21 08:19:49;;;;;;;352.97;103.33;;;;;;;0.20;78.68;97757.22;5075719;28;20111;-62
2021/01/21 08:22:14;;;;;;;354.83;100.10;;;;;;;0.37;77.92;97759.88;5065302;28;20041;-64
2021/01/21 08:24:59;;;;;;;359.07;106.13;;;;;;;0.28;77.73;97757.28;5060498;28;20032;-63
2021/01/21 08:27:24;;;;;;;358.90;104.72;;;;;;;0.38;77.98;97761.56;5063970;28;20028;-63
2021/01/21 08:29:50;;;;;;;360.17;109.03;;;;;;;0.42;78.12;97758.22;5041595;28;20041;-63
2021/01/21 08:32:15;;;;;;;357.20;103.57;;;;;;;0.36;78.21;97761.53;5069221;28;20064;-63
2021/01/21 08:34:42;;;;;;;357.03;103.23;;;;;;;0.35;78.90;97759.00;5055351;28;20040;-63
2021/01/21 08:37:07;;;;;;;367.05;107.30;;;;;;;0.68;78.79;97759.22;5068952;28;20064;-63
2021/01/21 08:39:33;;;;;;;361.13;101.23;;;;;;;0.96;77.77;97754.31;5064440;28;20028;-63
2021/01/21 08:41:59;;;;;;;356.03;99.93;;;;;;;1.20;76.31;97759.47;5063549;28;20025;-63
2021/01/21 08:44:25;;;;;;;366.77;109.17;;;;;;;1.31;75.66;97758.69;5062386;28;20025;-63
2021/01/21 08:46:57;;;;;;;363.83;103.87;;;;;;;1.50;75.89;97757.03;5064655;28;20705;-64
2021/01/21 08:49:23;;;;;;;367.48;106.38;;;;;;;1.58;75.60;97755.38;5065659;28;20043;-63
2021/01/21 08:51:48;;;;;;;372.23;109.77;;;;;;;1.72;75.89;97755.41;5073994;28;20051;-62
2021/01/21 08:54:21;;;;;;;374.03;110.13;;;;;;;1.86;75.62;97763.84;5055609;28;20102;-63
2021/01/21 08:57:06;;;;;;;379.05;114.10;;;;;;;1.98;74.97;97771.44;5093719;28;20086;-64
2021/01/21 08:59:32;;;;;;;278.35;84.25;;;;;;;1.91;76.12;97773.97;5094110;28;20073;-62
2021/01/21 09:01:57;;;;;;;372.80;110.75;;;;;;;1.80;75.71;97774.78;5095160;28;20459;-62
2021/01/21 09:04:23;;;;;;;380.87;120.93;;;;;;;1.81;76.10;97773.09;5094535;28;20058;-64
2021/01/21 09:06:51;;;;;;;372.67;110.87;;;;;;;1.63;76.38;97780.66;5081619;28;20039;-63
2021/01/21 09:09:24;;;;;;;376.52;110.60;;;;;;;1.81;76.01;97784.06;5074903;28;20061;-63
2021/01/21 09:11:50;;;;;;;371.63;107.38;;;;;;;1.74;75.49;97777.28;5087328;28;20122;-63
2021/01/21 09:14:16;;;;;;;369.50;106.00;;;;;;;1.74;75.50;97781.53;5094669;28;20507;-63
2021/01/21 09:16:51;;;;;;;380.75;109.10;;;;;;;1.85;75.48;97792.50;5094210;28;20040;-63
2021/01/21 09:19:25;;;;;;;375.40;111.23;;;;;;;1.70;76.38;97800.88;5094397;28;20360;-63
2021/01/21 09:22:01;;;;;;;372.05;109.30;;;;;;;1.78;75.57;97790.81;5094930;28;20040;-63
2021/01/21 09:24:27;;;;;;;373.38;108.68;;;;;;;1.60;75.17;97796.66;5080331;28;20036;-63
2021/01/21 09:27:13;;;;;;;367.20;106.30;;;;;;;1.78;74.70;97799.19;5075271;28;20148;-63
2021/01/21 09:29:58;;;;;;;380.35;109.72;;;;;;;1.86;74.19;97798.38;5074187;28;20036;-63
2021/01/21 09:32:30;;;;;;;369.67;114.82;;;;;;;1.72;73.83;97805.94;5074167;28;20029;-63
2021/01/21 09:35:00;;;;;;;376.35;112.25;;;;;;;1.78;73.88;97800.91;5089614;28;20337;-63
2021/01/21 09:37:27;;;;;;;373.33;110.10;;;;;;;1.75;75.17;97809.31;5093035;28;20463;-63
2021/01/21 09:39:53;;;;;;;374.38;108.78;;;;;;;1.72;74.85;97813.50;5094345;28;20077;-63
2021/01/21 09:42:19;;;;;;;389.00;117.65;;;;;;;1.95;75.10;97816.09;5094955;28;20028;-63
2021/01/21 09:44:45;;;;;;;370.20;107.07;;;;;;;1.90;75.86;97822.81;5075828;28;20418;-63
2021/01/21 09:47:11;;;;;;;377.90;114.33;;;;;;;1.84;75.79;97819.44;5094106;28;20046;-62
2021/01/21 09:49:36;;;;;;;379.73;118.27;;;;;;;2.04;75.30;97821.16;5092657;28;20024;-63
2021/01/21 09:52:05;;;;;;;378.13;115.20;;;;;;;2.07;74.92;97832.13;5093865;28;20028;-63
2021/01/21 09:54:31;;;;;;;375.40;113.78;;;;;;;2.08;74.97;97826.22;5093685;28;20493;-63
2021/01/21 09:56:56;;;;;;;379.47;116.83;;;;;;;2.07;74.80;97824.53;5094180;28;20047;-63
2021/01/21 09:59:22;;;;;;;378.53;116.43;;;;;;;2.12;75.06;97817.78;5093541;28;20035;-63
2021/01/21 10:01:48;;;;;;;383.05;119.40;;;;;;;1.90;75.69;97820.28;5095196;28;20340;-63
2021/01/21 10:04:14;;;;;;;379.43;117.90;;;;;;;1.69;76.24;97819.41;5093298;28;20031;-63
2021/01/21 10:06:40;;;;;;;381.98;118.20;;;;;;;1.93;77.38;97820.28;5083604;28;20035;-63
2021/01/21 10:09:05;;;;;;;386.70;118.70;;;;;;;1.97;75.99;97821.97;5063394;28;20032;-63
2021/01/21 10:11:31;;;;;;;383.40;120.20;;;;;;;2.23;75.14;97806.00;5087399;28;20036;-62
2021/01/21 10:13:57;;;;;;;388.77;133.50;;;;;;;2.31;75.26;97818.66;5086024;28;20064;-63
2021/01/21 10:16:22;;;;;;;381.63;123.53;;;;;;;2.20;75.01;97825.41;5087964;28;20040;-63
2021/01/21 10:18:48;;;;;;;381.37;117.53;;;;;;;2.27;74.81;97810.22;5082632;28;20112;-62
2021/01/21 10:21:14;;;;;;;378.20;113.83;;;;;;;2.20;74.85;97815.28;5089619;28;20034;-63
2021/01/21 10:23:40;;;;;;;376.50;113.47;;;;;;;2.33;75.13;97811.94;5089795;28;20364;-63
2021/01/21 10:26:05;;;;;;;381.20;117.77;;;;;;;2.38;74.34;97805.16;5086000;28;20028;-63
2021/01/21 10:28:30;;;;;;;379.70;119.80;;;;;;;2.51;73.54;97800.94;5086653;28;20082;-63
2021/01/21 10:30:56;;;;;;;377.33;116.03;;;;;;;2.52;73.10;97789.97;5088464;28;20093;-63
2021/01/21 10:33:21;;;;;;;381.80;116.27;;;;;;;2.57;73.24;97796.72;5092802;28;20375;-63
2021/01/21 10:35:47;;;;;;;375.73;113.87;;;;;;;2.87;72.45;97793.31;5089981;28;20095;-63
2021/01/21 10:38:12;;;;;;;377.23;113.30;;;;;;;3.05;71.76;97792.44;5091882;28;20344;-63
2021/01/21 10:40:39;;;;;;;380.33;115.33;;;;;;;3.06;71.27;97789.88;5091840;28;20059;-63
2021/01/21 10:43:05;;;;;;;382.63;116.95;;;;;;;2.98;70.91;97803.41;5092838;28;20043;-63
2021/01/21 10:45:30;;;;;;;388.53;140.33;;;;;;;3.09;71.51;97800.00;5088905;28;20044;-62
2021/01/21 10:47:56;;;;;;;388.37;142.20;;;;;;;3.13;71.12;97798.31;5088236;28;20117;-62
2021/01/21 10:50:21;;;;;;;379.93;117.47;;;;;;;3.13;70.75;97793.25;5087272;28;20499;-64
2021/01/21 10:52:46;;;;;;;382.57;119.23;;;;;;;3.08;71.16;97783.13;5075670;28;20035;-63
2021/01/21 10:55:12;;;;;;;389.23;123.47;;;;;;;3.03;70.80;97786.50;5092567;28;21543;-64
2021/01/21 10:57:38;;;;;;;388.23;126.30;;;;;;;2.90;70.92;97800.03;5087704;28;20037;-64
2021/01/21 11:00:04;;;;;;;380.27;121.77;;;;;;;2.67;71.56;97807.69;5086541;28;20100;-63
2021/01/21 11:02:29;;;;;;;382.48;123.85;;;;;;;2.72;71.98;97789.09;5074837;28;20101;-62
2021/01/21 11:04:55;;;;;;;388.00;127.43;;;;;;;2.76;73.59;97798.38;5084906;28;20078;-64
2021/01/21 11:07:20;;;;;;;383.23;119.97;;;;;;;3.00;71.70;97812.69;5088313;28;20460;-63
2021/01/21 11:09:46;;;;;;;382.80;119.40;;;;;;;3.30;71.58;97810.91;5079992;28;20036;-63
2021/01/21 11:12:11;;;;;;;384.07;131.00;;;;;;;3.44;70.59;97796.47;5088945;28;20095;-62
2021/01/21 11:14:37;;;;;;;385.77;125.40;;;;;;;3.50;70.34;97796.47;5089142;28;20036;-63